ZGOW

Shantou Waisha Airport

Shantou, China
TAF ZGOW 200302Z 2006/2106 10003MPS 6000 FEW020 SCT040 TX24/2007Z TN12/2022Z
Issued Valid From Valid To
Jan-20 @ 03:02 UTC
(8 hours ago)
Jan-20 @ 06:00 UTC
(5 hours ago)
Jan-21 @ 06:00 UTC
(in 19 hours)
Jan-20 @ 06:00 to Jan-21 @ 06:00
TAF ZGOW 200302Z 2006/2106 10003MPS 6000 FEW020 SCT040 TX24/2007Z TN12/2022Z
Wind Visibility Clouds
100° at 6 knots 6,003 meters
  • Few at 2,000' AGL
  • Scattered at 4,000' AGL
TAF ZGOW 200302Z 2006/2106 10003MPS 6000 FEW020 SCT040 TX24/2007Z TN12/2022Z
Issued Jan-20 @ 03:02 UTC
(8 hours ago)
Valid From Jan-20 @ 06:00 UTC
(5 hours ago)
Valid To Jan-21 @ 06:00 UTC
(in 19 hours)
Jan-20 @ 06:00 - Jan-21 @ 06:00
Wind Visibility
100° at 6 knots 6,003 meters
Clouds
  • Few at 2,000' AGL
  • Scattered at 4,000' AGL